Archival Weather

Chicago O'Hare International

Chicago, Illinois (KORD)

Report from: Sunday, March 6, 2022 9:51 PM CST
Current time: Saturday, February 4, 2023 11:06 PM CST

Current weather
Weather history
Weather forecast

Temperature2.8°C (37.0°F)
Dew point-2.2°C (28.0°F)
Winds Calm
Visibility10 mi. (16.1 km)
Clouds Ceiling: Broken clouds 2,600 ft. (792 m)
Overcast 16,000 ft. (4,877 m)
Altimeter30.04 in.Hg (1017 mB)
Relative humidity70 %
Density altitude-1,538 ft. (-469 m)
Sea-level pressure101.8 kPa (1018 mB, 30.05 in.Hg)
Remarks System requires maintenance
Automated weather observing station with precipitation discriminator
Flight conditions Marginal Visual Meteorological Conditions
Raw dataKORD 070351Z 00000KT 10SM BKN026 OVC160 03/M02 A3004 RMK AO2 SLP177 T00281022 $
An unhandled exception has occurred. See browser dev tools for details. Reload 🗙